SIPK1: Pottawatomie Creek nr Scipio 1SE

                                SHEF ID:       SIPK1     POTTAWATOMIE C NR SCIPIO, KS
STATION TYPE:

PRECIP STAGE RIV-FLOW BAT-LOAD
in ft cfs volt
Ccp-Rev Ccp-Rev Ccp-Rev Ccp-Rev
(America/Chicago)
08/09 00:00 ---- 4.86 322 12.73
08/09 01:00 ---- 4.81 313 12.73
08/09 02:00 ---- 4.76 304 12.73
08/09 03:00 ---- 4.70 293 12.65
08/09 04:00 ---- 4.65 282 12.65
08/09 05:00 ---- 4.61 271 12.65
08/09 06:00 ---- 4.57 259 12.65
08/09 07:00 ---- 4.53 248 12.65
08/09 08:00 ---- 4.50 240 12.65
08/09 09:00 ---- 4.48 234 12.65
08/09 10:00 ---- 4.43 222 12.65
08/09 11:00 ---- 4.40 215 12.89
08/09 12:00 ---- 4.38 210 13.21
08/09 13:00 ---- 4.35 203 13.53
08/09 14:00 ---- 4.33 199 13.53
08/09 15:00 ---- 4.31 195 13.53
08/09 16:00 ---- 4.29 191 13.44
08/09 17:00 ---- 4.27 187 13.44
08/09 18:00 ---- 4.25 183 13.37
08/09 19:00 ---- 4.22 177 13.21
08/09 20:00 ---- 4.21 175 12.89
08/09 21:00 ---- 4.20 173 12.81
08/09 22:00 ---- 4.18 169 12.81
08/09 23:00 ---- 4.17 167 12.81
Data processed at Mon 10Aug2026 04:48 GMT

NOTICE: If you are parsing this page

Please convert to using our Data API. Starting early 2026 we will be migrating to: https://water.usace.army.mil with modern pages rendered in JavaScript. When this migration completes you will no longer be able to scrape this page! CWMSDataAPI (CDA)

Timeseries IDs (TSIDs)

TSIDs used from left to right in the data table
SCIP.Precip-Inc.Total.1Hour.1Hour.Ccp-Rev
SCIP.Stage.Inst.1Hour.0.Ccp-Rev
SCIP.Flow.Inst.1Hour.0.Ccp-Rev
SCIP.Volt-Battery Load.Inst.1Hour.0.Ccp-Rev

                            

All information presented herein is the property of the government of the United States of America and may be revised or deleted at any time without prior notice. Dissemination of this information without the expressed written consent of the Public Affairs Office, Tulsa District U.S. Army Corps of Engineers is strictly prohibited. These data are gathered electronically and, as presented, have NOT undergone any form of quality control. These data are NOT guaranteed to be valid or correct.